AUA752W LATI-LOWW
Flight info
| Callsign | AUA752W |
|---|---|
| Flight time | N/A |
| Altitude | 34000 |
| Route | INLOT DCT RETRA DCT OBUTI OBUTI2W |
| Aircraft | A320/M-SDE3FGHIRWY/LB1 |
Departure
| Time | 2026-04-29 06:57 |
|---|---|
| Airport | Tirana International Airport Mother Teresa (LATI) |
Arrival
| Time | N/A |
|---|---|
| Airport | Vienna International Airport (LOWW) |
| Time | Latitude | Longitude | Altitude | Speed | Heading |
|---|---|---|---|---|---|
| 2026-04-29 06:32 | 41.41910 | 19.71519 | 122 ft | 0 kts | 264° |
| 2026-04-29 06:47 | 41.41913 | 19.71546 | 119 ft | 4 kts | 250° |
| 2026-04-29 06:47 | 41.41926 | 19.71574 | 118 ft | 4 kts | 211° |
| 2026-04-29 06:47 | 41.41944 | 19.71581 | 119 ft | 1 kts | 174° |
| 2026-04-29 06:48 | 41.41947 | 19.71581 | 118 ft | 0 kts | 174° |
| 2026-04-29 06:50 | 41.41932 | 19.71583 | 119 ft | 5 kts | 174° |
| 2026-04-29 06:50 | 41.41924 | 19.71584 | 118 ft | 6 kts | 174° |
| 2026-04-29 06:50 | 41.41908 | 19.71586 | 121 ft | 8 kts | 174° |
| 2026-04-29 06:50 | 41.41881 | 19.71590 | 124 ft | 10 kts | 174° |
| 2026-04-29 06:51 | 41.41816 | 19.71590 | 124 ft | 14 kts | 188° |
| 2026-04-29 06:51 | 41.41704 | 19.71613 | 123 ft | 19 kts | 175° |
| 2026-04-29 06:51 | 41.41696 | 19.71614 | 125 ft | 19 kts | 175° |
| 2026-04-29 06:51 | 41.41545 | 19.71633 | 122 ft | 24 kts | 174° |
| 2026-04-29 06:52 | 41.41390 | 19.71652 | 126 ft | 21 kts | 175° |
| 2026-04-29 06:52 | 41.41241 | 19.71674 | 129 ft | 22 kts | 173° |
| 2026-04-29 06:52 | 41.41093 | 19.71695 | 126 ft | 19 kts | 174° |
| 2026-04-29 06:52 | 41.40956 | 19.71713 | 127 ft | 20 kts | 174° |
| 2026-04-29 06:53 | 41.40814 | 19.71749 | 131 ft | 21 kts | 169° |
| 2026-04-29 06:53 | 41.40672 | 19.71772 | 132 ft | 15 kts | 177° |
| 2026-04-29 06:53 | 41.40563 | 19.71784 | 132 ft | 16 kts | 174° |
| 2026-04-29 06:53 | 41.40450 | 19.71799 | 132 ft | 17 kts | 174° |
| 2026-04-29 06:54 | 41.40355 | 19.71858 | 132 ft | 13 kts | 145° |
| 2026-04-29 06:54 | 41.40286 | 19.71924 | 133 ft | 11 kts | 144° |
| 2026-04-29 06:54 | 41.40237 | 19.71990 | 133 ft | 9 kts | 120° |
| 2026-04-29 06:54 | 41.40238 | 19.72062 | 133 ft | 7 kts | 78° |
| 2026-04-29 06:55 | 41.40245 | 19.72121 | 133 ft | 6 kts | 83° |
| 2026-04-29 06:55 | 41.40252 | 19.72191 | 132 ft | 10 kts | 78° |
| 2026-04-29 06:55 | 41.40297 | 19.72213 | 132 ft | 0 kts | 356° |
| 2026-04-29 06:56 | 41.40388 | 19.72204 | 132 ft | 47 kts | 354° |
| 2026-04-29 06:56 | 41.40958 | 19.72120 | 133 ft | 115 kts | 354° |
| 2026-04-29 06:56 | 41.41941 | 19.71993 | 152 ft | 163 kts | 354° |
| 2026-04-29 06:57 | 41.43056 | 19.71850 | 756 ft | 161 kts | 355° |
| 2026-04-29 06:57 | 41.44176 | 19.71730 | 1374 ft | 162 kts | 356° |
| 2026-04-29 06:57 | 41.45359 | 19.71614 | 1774 ft | 181 kts | 355° |
| 2026-04-29 06:57 | 41.46694 | 19.71481 | 2090 ft | 204 kts | 355° |
| 2026-04-29 06:58 | 41.48183 | 19.71328 | 2391 ft | 225 kts | 355° |
| 2026-04-29 06:58 | 41.49834 | 19.71153 | 2730 ft | 250 kts | 354° |
| 2026-04-29 06:58 | 41.51641 | 19.70958 | 3301 ft | 267 kts | 354° |
| 2026-04-29 06:58 | 41.53506 | 19.70754 | 4144 ft | 271 kts | 354° |
| 2026-04-29 06:59 | 41.55414 | 19.70544 | 5013 ft | 275 kts | 353° |
| 2026-04-29 06:59 | 41.57285 | 19.70011 | 5877 ft | 277 kts | 340° |
| 2026-04-29 06:59 | 41.59080 | 19.69047 | 6761 ft | 279 kts | 334° |
| 2026-04-29 06:59 | 41.59621 | 19.68709 | 7022 ft | 279 kts | 333° |
| 2026-04-29 07:00 | 41.61389 | 19.67545 | 7896 ft | 281 kts | 332° |
| 2026-04-29 07:00 | 41.63118 | 19.66390 | 8748 ft | 282 kts | 332° |
| 2026-04-29 07:00 | 41.64887 | 19.65236 | 9609 ft | 284 kts | 333° |
| 2026-04-29 07:00 | 41.65514 | 19.64836 | 9906 ft | 284 kts | 333° |
| 2026-04-29 07:01 | 41.67329 | 19.63699 | 10463 ft | 297 kts | 334° |
| 2026-04-29 07:01 | 41.69281 | 19.62504 | 10674 ft | 320 kts | 334° |
| 2026-04-29 07:01 | 41.71389 | 19.61233 | 10888 ft | 341 kts | 334° |
| 2026-04-29 07:01 | 41.73586 | 19.59919 | 11462 ft | 349 kts | 334° |
| 2026-04-29 07:02 | 41.75823 | 19.58588 | 12184 ft | 352 kts | 334° |
| 2026-04-29 07:02 | 41.78072 | 19.57251 | 12882 ft | 355 kts | 334° |
| 2026-04-29 07:02 | 41.80340 | 19.55896 | 13581 ft | 358 kts | 334° |
| 2026-04-29 07:02 | 41.82622 | 19.54529 | 14224 ft | 361 kts | 334° |